Time;durP1;ratioP1;P1;durP2;ratioP2;P2;SDS_P1;SDS_P2;PMS_P1;PMS_P2;Temp;Humidity;BMP_temperature;BMP_pressure;BME280_temperature;BME280_humidity;BME280_pressure;Samples;Min_cycle;Max_cycle;Signal;HPM_P1;HPM_P2
2021/04/02 00:00:36;;;;;;;8.23;0.20;;;;;;;3.38;50.38;102549.69;4980603;28;20073;-69
2021/04/02 00:03:09;;;;;;;6.28;0.30;;;;;;;3.43;50.23;102542.06;4985515;28;20114;-68
2021/04/02 00:05:34;;;;;;;3.53;0.45;;;;;;;3.39;50.42;102548.88;4983765;28;20049;-68
2021/04/02 00:08:00;;;;;;;4.82;0.40;;;;;;;3.37;50.05;102550.56;4984856;28;20035;-68
2021/04/02 00:10:26;;;;;;;1.67;0.15;;;;;;;3.32;49.92;102550.47;4998041;28;20136;-70
2021/04/02 00:12:51;;;;;;;2.88;0.95;;;;;;;3.25;49.90;102547.72;4985293;28;20100;-70
2021/04/02 00:15:20;;;;;;;4.78;1.08;;;;;;;3.22;50.08;102545.94;4979541;28;20038;-67
2021/04/02 00:17:46;;;;;;;3.97;0.63;;;;;;;3.30;50.01;102552.16;4997755;28;20046;-69
2021/04/02 00:20:18;;;;;;;1.85;0.30;;;;;;;3.26;49.87;102554.63;4985858;28;20038;-69
2021/04/02 00:22:44;;;;;;;2.13;0.40;;;;;;;3.17;49.71;102551.03;4986309;28;20556;-67
2021/04/02 00:25:11;;;;;;;2.63;0.40;;;;;;;3.05;49.74;102548.25;4967140;28;20050;-70
2021/04/02 00:27:37;;;;;;;2.45;0.20;;;;;;;3.00;49.69;102546.41;4988988;28;20093;-69
2021/04/02 00:30:27;;;;;;;2.63;0.43;;;;;;;2.95;49.77;102548.91;4985848;28;20038;-67
2021/04/02 00:32:52;;;;;;;3.45;0.30;;;;;;;2.85;49.86;102542.72;4983174;28;20048;-68
2021/04/02 00:35:18;;;;;;;5.65;0.70;;;;;;;2.94;49.87;102537.72;4985892;28;20046;-68
2021/04/02 00:37:43;;;;;;;3.65;0.63;;;;;;;2.87;49.78;102540.16;4985953;28;20057;-67
2021/04/02 00:40:17;;;;;;;2.67;0.40;;;;;;;2.70;49.78;102537.25;4984034;28;20598;-67
2021/04/02 00:42:43;;;;;;;1.27;0.30;;;;;;;2.62;49.58;102547.41;4983928;28;20080;-68
2021/04/02 00:45:09;;;;;;;5.80;0.43;;;;;;;2.45;49.57;102541.06;4989434;28;20056;-68
2021/04/02 00:47:36;;;;;;;2.88;1.70;;;;;;;2.30;50.22;102542.47;4987991;28;20108;-67
2021/04/02 00:50:11;;;;;;;4.35;0.50;;;;;;;2.26;50.32;102540.66;4988597;28;20100;-68
2021/04/02 00:52:36;;;;;;;2.10;0.40;;;;;;;2.27;50.56;102550.16;5003502;28;20138;-69
2021/04/02 00:55:03;;;;;;;3.17;0.10;;;;;;;2.35;50.75;102547.72;4987536;28;20472;-68
2021/04/02 00:57:28;;;;;;;3.15;0.30;;;;;;;2.51;50.99;102560.13;4985734;28;20030;-67
2021/04/02 00:59:54;;;;;;;1.40;0.30;;;;;;;2.76;50.92;102558.91;4973209;28;20117;-67
2021/04/02 01:02:20;;;;;;;2.70;0.30;;;;;;;2.93;50.62;102553.16;4989321;28;20025;-67
2021/04/02 01:04:46;;;;;;;5.25;0.63;;;;;;;3.02;50.28;102558.50;4973368;28;20092;-68
2021/04/02 01:07:12;;;;;;;3.40;0.50;;;;;;;3.12;50.31;102557.84;4987964;28;20038;-67
2021/04/02 01:09:38;;;;;;;7.95;0.88;;;;;;;3.31;50.02;102550.44;4988282;28;20052;-68
2021/04/02 01:12:06;;;;;;;5.38;0.40;;;;;;;3.39;50.10;102556.63;4988284;28;20030;-67
2021/04/02 01:14:32;;;;;;;7.20;0.77;;;;;;;3.45;50.79;102546.41;4983896;28;20073;-67
2021/04/02 01:16:57;;;;;;;10.75;1.00;;;;;;;3.47;51.20;102555.03;4990115;28;20488;-67
2021/04/02 01:19:31;;;;;;;10.93;0.80;;;;;;;3.70;51.28;102539.03;4989352;28;20099;-68
2021/04/02 01:22:08;;;;;;;5.35;0.95;;;;;;;3.85;51.52;102543.53;4987278;28;20038;-67
2021/04/02 01:25:21;;;;;;;8.15;0.88;;;;;;;3.94;52.01;102551.44;4988801;28;20480;-67
2021/04/02 01:28:01;;;;;;;14.55;0.90;;;;;;;4.25;51.85;102549.28;5001090;28;20723;-67
2021/04/02 01:30:29;;;;;;;8.63;0.75;;;;;;;4.32;52.25;102548.50;4988501;28;20449;-68
2021/04/02 01:32:58;;;;;;;11.23;0.90;;;;;;;4.23;52.58;102546.69;4987075;28;20058;-67
2021/04/02 01:35:30;;;;;;;6.22;1.67;;;;;;;4.29;53.00;102551.94;4987727;28;20041;-67
2021/04/02 01:37:58;;;;;;;4.30;1.27;;;;;;;4.51;52.36;102555.66;4988354;28;20038;-67
2021/04/02 01:40:27;;;;;;;14.30;0.80;;;;;;;4.41;52.60;102559.88;4988234;28;20034;-67
2021/04/02 01:42:59;;;;;;;6.40;0.98;;;;;;;4.36;52.29;102558.94;4989180;28;20050;-68
2021/04/02 01:45:25;;;;;;;8.95;0.93;;;;;;;4.23;52.22;102554.47;5003960;28;20500;-68
2021/04/02 01:47:57;;;;;;;12.15;1.33;;;;;;;3.84;52.33;102565.09;5001800;28;20042;-67
2021/04/02 01:50:24;;;;;;;10.45;1.10;;;;;;;4.30;50.97;102565.75;4986465;28;20100;-68
2021/04/02 01:52:51;;;;;;;4.30;0.85;;;;;;;4.45;50.26;102565.06;4987480;28;20030;-68
2021/04/02 01:55:18;;;;;;;9.23;0.93;;;;;;;4.06;50.91;102568.88;4988983;28;20061;-67
2021/04/02 01:57:50;;;;;;;5.15;0.77;;;;;;;3.85;51.25;102575.47;4986863;28;20047;-67
2021/04/02 02:00:30;;;;;;;9.15;1.50;;;;;;;3.82;50.93;102570.25;4973214;28;20038;-67
2021/04/02 02:02:57;;;;;;;7.18;0.57;;;;;;;4.09;50.19;102566.31;4988540;28;20362;-67
2021/04/02 02:05:28;;;;;;;4.95;0.93;;;;;;;3.94;50.40;102560.09;4988776;28;20125;-67
2021/04/02 02:07:59;;;;;;;6.70;0.68;;;;;;;3.67;50.81;102557.97;4970774;28;20038;-67
2021/04/02 02:10:27;;;;;;;5.72;0.82;;;;;;;4.02;50.04;102566.22;4989438;28;20038;-67
2021/04/02 02:12:58;;;;;;;4.10;0.82;;;;;;;4.17;49.76;102560.41;4986384;28;20109;-67
2021/04/02 02:15:38;;;;;;;10.02;0.98;;;;;;;4.01;49.58;102561.91;4985457;28;20762;-67
2021/04/02 02:18:12;;;;;;;9.82;0.95;;;;;;;3.77;49.42;102556.38;4983466;28;20072;-68
2021/04/02 02:20:41;;;;;;;5.25;0.73;;;;;;;3.80;49.55;102559.00;4985460;28;20088;-67
2021/04/02 02:23:09;;;;;;;4.80;0.57;;;;;;;3.73;49.79;102559.75;5001575;28;20030;-67
2021/04/02 02:25:35;;;;;;;8.93;1.20;;;;;;;3.73;49.60;102552.00;4985628;28;20040;-67
2021/04/02 02:28:05;;;;;;;9.45;1.35;;;;;;;3.76;49.66;102549.44;5017648;28;20065;-67
2021/04/02 02:30:33;;;;;;;4.78;1.08;;;;;;;3.79;49.45;102552.97;4971002;28;20041;-67
2021/04/02 02:33:12;;;;;;;9.68;1.02;;;;;;;3.89;49.69;102553.09;4986216;28;20030;-66
2021/04/02 02:35:46;;;;;;;6.97;0.40;;;;;;;3.30;50.46;102551.31;4988124;28;20038;-68
2021/04/02 02:38:12;;;;;;;4.75;0.40;;;;;;;3.76;48.67;102550.34;4986381;28;20034;-66
2021/04/02 02:40:38;;;;;;;7.35;0.80;;;;;;;3.56;48.65;102554.31;5001425;28;20038;-67
2021/04/02 02:43:06;;;;;;;13.85;0.75;;;;;;;3.90;48.36;102555.72;4971429;28;20014;-67
2021/04/02 02:45:33;;;;;;;12.68;0.90;;;;;;;4.11;48.34;102551.69;4987417;28;20030;-67
2021/04/02 02:48:01;;;;;;;12.48;0.70;;;;;;;4.03;48.32;102556.78;4985782;28;20951;-67
2021/04/02 02:50:35;;;;;;;8.95;0.88;;;;;;;4.19;48.60;102555.25;4985599;28;20034;-67
2021/04/02 02:53:03;;;;;;;5.65;0.80;;;;;;;4.36;47.69;102558.94;4985797;28;20094;-69
2021/04/02 02:55:32;;;;;;;5.30;0.75;;;;;;;3.99;48.69;102550.66;4986212;28;20069;-67
2021/04/02 02:58:00;;;;;;;8.50;1.08;;;;;;;4.36;47.53;102540.81;4986587;28;20514;-67
2021/04/02 03:00:40;;;;;;;2.15;0.73;;;;;;;4.07;47.90;102539.56;4985989;28;20045;-68
2021/04/02 03:03:13;;;;;;;3.63;1.10;;;;;;;4.07;47.74;102544.72;4982717;28;20022;-67
2021/04/02 03:05:44;;;;;;;10.30;0.90;;;;;;;4.07;47.80;102547.31;4987078;28;20034;-67
2021/04/02 03:08:13;;;;;;;8.13;0.82;;;;;;;4.19;47.61;102539.72;4986419;28;20148;-67
2021/04/02 03:10:40;;;;;;;6.47;1.10;;;;;;;4.09;47.65;102530.09;4985923;28;20697;-67
2021/04/02 03:13:08;;;;;;;6.32;1.13;;;;;;;3.87;48.18;102547.88;4983538;28;20031;-67
2021/04/02 03:15:36;;;;;;;8.50;0.73;;;;;;;4.27;47.43;102534.66;4983945;28;20041;-66
2021/04/02 03:18:07;;;;;;;8.65;0.40;;;;;;;4.05;47.59;102534.38;4968428;28;20033;-66
2021/04/02 03:20:36;;;;;;;5.03;0.80;;;;;;;4.06;47.18;102522.31;4967904;28;20042;-67
2021/04/02 03:23:04;;;;;;;3.80;0.32;;;;;;;4.01;47.08;102520.50;4986346;28;20041;-68
2021/04/02 03:25:33;;;;;;;4.28;0.38;;;;;;;4.36;46.38;102529.56;4987694;28;20050;-69
2021/04/02 03:28:05;;;;;;;6.03;0.82;;;;;;;4.18;46.96;102525.03;4997565;28;20058;-67
2021/04/02 03:30:40;;;;;;;8.52;1.55;;;;;;;4.37;46.50;102521.84;4971640;28;20042;-67
2021/04/02 03:33:19;;;;;;;7.72;0.50;;;;;;;3.81;47.66;102529.72;5001785;28;20229;-66
2021/04/02 03:35:56;;;;;;;5.73;0.30;;;;;;;4.00;47.31;102531.69;4985886;28;20105;-67
2021/04/02 03:38:24;;;;;;;6.43;0.50;;;;;;;4.02;47.39;102535.19;4986547;28;20321;-66
2021/04/02 03:40:51;;;;;;;21.50;2.05;;;;;;;4.43;46.14;102523.63;4988114;28;20869;-66
2021/04/02 03:43:19;;;;;;;7.97;0.93;;;;;;;4.52;46.41;102525.44;4987457;28;20045;-67
2021/04/02 03:45:49;;;;;;;6.50;0.57;;;;;;;4.40;46.30;102537.41;5021176;28;20038;-67
2021/04/02 03:48:18;;;;;;;2.20;0.60;;;;;;;4.28;46.08;102537.25;4985074;28;20026;-67
2021/04/02 03:50:51;;;;;;;4.00;1.25;;;;;;;4.28;45.83;102526.91;4987477;28;20117;-67
2021/04/02 03:53:21;;;;;;;12.15;0.88;;;;;;;4.32;45.61;102526.09;4985694;28;20658;-67
2021/04/02 03:55:51;;;;;;;5.55;0.40;;;;;;;4.30;45.40;102524.34;4996950;28;20039;-67
2021/04/02 03:58:19;;;;;;;5.25;1.33;;;;;;;3.91;46.71;102521.22;4990452;28;20042;-66
2021/04/02 04:00:52;;;;;;;5.22;0.50;;;;;;;4.14;45.84;102525.84;4984763;28;20069;-67
2021/04/02 04:03:20;;;;;;;4.78;1.05;;;;;;;3.76;46.50;102527.06;4986141;28;20155;-67
2021/04/02 04:05:52;;;;;;;11.77;0.70;;;;;;;3.99;45.83;102531.69;4982657;28;20026;-67
2021/04/02 04:08:20;;;;;;;2.83;0.60;;;;;;;3.69;46.81;102534.69;4982337;28;20042;-67
2021/04/02 04:10:51;;;;;;;5.18;0.77;;;;;;;3.94;45.54;102525.56;5019906;28;20042;-66
2021/04/02 04:13:20;;;;;;;1.95;0.30;;;;;;;3.82;45.11;102526.25;4986543;28;20373;-67
2021/04/02 04:15:48;;;;;;;4.22;0.40;;;;;;;3.80;45.33;102527.97;4989009;28;20062;-70
2021/04/02 04:18:17;;;;;;;9.55;0.93;;;;;;;4.06;44.88;102520.56;4984164;28;20150;-67
2021/04/02 04:20:44;;;;;;;2.22;1.25;;;;;;;4.14;45.06;102518.06;4994593;28;20092;-69
2021/04/02 04:23:19;;;;;;;8.25;1.13;;;;;;;4.30;44.76;102520.03;4988211;28;20143;-66
2021/04/02 04:25:45;;;;;;;3.17;0.47;;;;;;;4.44;44.29;102509.84;4987509;28;20061;-67
2021/04/02 04:28:14;;;;;;;6.28;0.60;;;;;;;4.36;44.50;102512.34;4988689;28;20125;-68
2021/04/02 04:30:40;;;;;;;10.35;1.02;;;;;;;4.35;44.67;102507.16;4989787;28;20071;-69
2021/04/02 04:33:08;;;;;;;10.75;1.23;;;;;;;4.37;44.40;102511.50;4972729;28;20121;-68
2021/04/02 04:35:34;;;;;;;13.98;1.10;;;;;;;4.31;44.17;102510.53;4987467;28;20627;-70
2021/04/02 04:38:03;;;;;;;2.80;0.57;;;;;;;4.50;43.97;102517.69;4987473;28;20034;-68
2021/04/02 04:40:30;;;;;;;10.00;1.13;;;;;;;4.59;43.73;102511.75;4987807;28;20073;-69
2021/04/02 04:42:57;;;;;;;6.75;1.38;;;;;;;4.45;43.85;102515.88;4987624;28;20026;-68
2021/04/02 04:45:25;;;;;;;3.95;1.02;;;;;;;4.52;43.95;102509.91;4985957;28;20046;-67
2021/04/02 04:47:50;;;;;;;3.03;0.75;;;;;;;4.50;44.43;102514.19;4988711;28;20049;-72
2021/04/02 04:50:17;;;;;;;14.20;1.30;;;;;;;4.20;44.63;102513.84;4990344;28;20491;-67
2021/04/02 04:53:06;;;;;;;6.85;0.65;;;;;;;3.55;45.64;102513.78;4988197;28;20042;-67
2021/04/02 04:55:35;;;;;;;3.13;0.73;;;;;;;4.07;44.26;102511.09;4997421;28;20042;-70
2021/04/02 04:58:02;;;;;;;2.05;0.52;;;;;;;3.80;44.87;102512.44;4996164;28;20046;-66
2021/04/02 05:00:31;;;;;;;2.28;0.22;;;;;;;4.27;44.04;102504.44;4990965;28;20100;-67
2021/04/02 05:02:57;;;;;;;5.13;0.77;;;;;;;4.39;43.73;102512.38;4989098;28;20038;-68
2021/04/02 05:05:28;;;;;;;6.57;0.50;;;;;;;4.35;43.76;102501.97;4985169;28;20101;-67
2021/04/02 05:07:56;;;;;;;15.18;0.77;;;;;;;4.60;43.47;102510.88;5005221;28;20038;-68
2021/04/02 05:10:22;;;;;;;6.75;0.80;;;;;;;4.43;43.67;102511.56;4989399;28;20150;-67
2021/04/02 05:12:50;;;;;;;16.25;0.95;;;;;;;4.46;44.05;102510.72;4989061;28;20447;-68
2021/04/02 05:15:16;;;;;;;3.83;0.40;;;;;;;4.35;44.36;102508.00;4982772;28;20093;-67
2021/04/02 05:17:42;;;;;;;6.65;1.05;;;;;;;4.24;44.65;102504.41;4989836;28;20046;-67
2021/04/02 05:20:10;;;;;;;5.32;0.50;;;;;;;4.34;44.12;102500.22;4991219;28;20039;-66
2021/04/02 05:22:36;;;;;;;8.80;0.77;;;;;;;3.92;44.67;102499.69;4988608;28;20100;-68
2021/04/02 05:25:03;;;;;;;9.15;1.45;;;;;;;4.42;43.39;102499.47;4986796;28;20065;-68
2021/04/02 05:27:29;;;;;;;8.40;0.50;;;;;;;4.45;43.24;102503.78;5002406;28;20093;-67
2021/04/02 05:29:54;;;;;;;3.13;0.82;;;;;;;4.44;43.88;102504.66;4988031;28;20037;-66
2021/04/02 05:32:20;;;;;;;4.60;1.08;;;;;;;4.32;44.03;102507.09;4986778;28;20065;-68
2021/04/02 05:34:46;;;;;;;5.93;0.90;;;;;;;4.37;44.24;102508.91;4991621;28;20044;-66
2021/04/02 05:37:11;;;;;;;7.05;0.50;;;;;;;4.35;44.54;102515.78;4975893;28;20026;-66
2021/04/02 05:39:37;;;;;;;9.00;0.85;;;;;;;3.94;44.81;102503.19;4988546;28;20582;-66
2021/04/02 05:42:05;;;;;;;1.98;0.25;;;;;;;3.80;45.00;102502.09;5007523;28;20122;-66
2021/04/02 05:44:34;;;;;;;5.75;0.50;;;;;;;4.22;44.02;102500.94;4989406;28;20038;-66
2021/04/02 05:47:07;;;;;;;3.20;0.95;;;;;;;4.04;43.99;102511.06;4983259;28;20046;-67
2021/04/02 05:49:34;;;;;;;8.00;0.50;;;;;;;3.70;43.96;102510.59;4988569;28;20378;-67
2021/04/02 05:52:01;;;;;;;5.00;1.02;;;;;;;3.76;44.02;102515.81;4989738;28;20104;-66
2021/04/02 05:54:33;;;;;;;12.23;0.65;;;;;;;3.86;43.86;102509.94;4989668;28;20065;-67
2021/04/02 05:56:58;;;;;;;;;;;;;;;3.94;43.57;102513.53;4989128;28;20030;-66
2021/04/02 05:59:25;;;;;;;4.95;0.32;;;;;;;3.79;43.72;102519.34;4989734;28;20295;-66
2021/04/02 06:01:51;;;;;;;4.82;1.00;;;;;;;3.71;44.32;102520.06;5019779;28;20042;-67
2021/04/02 06:04:17;;;;;;;7.78;0.40;;;;;;;4.25;43.35;102511.31;4988109;28;20045;-67
2021/04/02 06:06:45;;;;;;;7.10;1.05;;;;;;;4.46;42.84;102515.03;5019704;28;20026;-67
2021/04/02 06:09:11;;;;;;;7.38;0.85;;;;;;;4.62;43.06;102506.59;4989405;28;20450;-66
2021/04/02 06:11:37;;;;;;;8.05;0.75;;;;;;;4.68;42.80;102500.63;4986148;28;20030;-67
2021/04/02 06:14:03;;;;;;;6.78;0.60;;;;;;;4.74;42.28;102511.03;4989171;28;20033;-66
2021/04/02 06:16:29;;;;;;;5.85;0.65;;;;;;;4.64;42.72;102504.88;4988379;28;20700;-67
2021/04/02 06:18:57;;;;;;;6.78;1.02;;;;;;;4.52;42.87;102515.09;4989850;28;20034;-67
2021/04/02 06:21:26;;;;;;;8.25;0.40;;;;;;;4.67;42.13;102510.09;4987979;28;20034;-67
2021/04/02 06:23:52;;;;;;;4.38;0.70;;;;;;;4.49;42.86;102509.88;4988726;28;20108;-66
2021/04/02 06:26:18;;;;;;;7.32;0.57;;;;;;;4.72;41.75;102513.63;4985867;28;20057;-66
2021/04/02 06:28:43;;;;;;;18.08;0.90;;;;;;;4.63;42.28;102513.50;4993349;28;20114;-67
2021/04/02 06:31:17;;;;;;;8.98;0.50;;;;;;;4.78;42.20;102515.38;4988020;28;20566;-68
2021/04/02 06:33:45;;;;;;;5.80;0.63;;;;;;;4.94;42.05;102508.66;5002696;28;20038;-67
2021/04/02 06:36:12;;;;;;;3.65;0.95;;;;;;;4.61;41.89;102516.09;4986937;28;20484;-69
2021/04/02 06:38:44;;;;;;;9.02;0.82;;;;;;;4.61;41.72;102520.41;5002015;28;20034;-68
2021/04/02 06:41:11;;;;;;;5.93;0.55;;;;;;;4.42;41.36;102524.47;5001376;28;20034;-67
2021/04/02 06:43:45;;;;;;;1.70;0.15;;;;;;;4.42;42.04;102520.16;5001409;28;20061;-68
2021/04/02 06:46:33;;;;;;;8.65;0.40;;;;;;;4.76;41.40;102505.00;4984162;28;20038;-69
2021/04/02 06:49:12;;;;;;;4.40;0.55;;;;;;;4.86;41.86;102505.13;4986529;28;20042;-67
2021/04/02 06:51:41;;;;;;;7.30;0.50;;;;;;;4.71;41.89;102506.69;4983403;28;20432;-68
2021/04/02 06:54:07;;;;;;;5.40;1.00;;;;;;;4.58;42.08;102500.50;4984099;28;20091;-67
2021/04/02 06:56:34;;;;;;;8.77;0.93;;;;;;;4.78;42.27;102500.72;4984382;28;20038;-67
2021/04/02 06:59:01;;;;;;;9.65;1.08;;;;;;;4.91;42.11;102503.47;4985505;28;20038;-67
2021/04/02 07:01:32;;;;;;;11.00;0.57;;;;;;;5.14;42.49;102495.91;4987686;28;20066;-67
2021/04/02 07:03:59;;;;;;;6.55;0.90;;;;;;;4.72;42.93;102507.53;4986473;28;20053;-68
2021/04/02 07:06:26;;;;;;;4.50;0.70;;;;;;;4.70;43.03;102506.66;4986991;28;20038;-67
2021/04/02 07:08:52;;;;;;;10.70;0.85;;;;;;;5.23;42.17;102498.56;5001124;28;20535;-68
2021/04/02 07:11:18;;;;;;;7.78;0.93;;;;;;;5.24;42.30;102492.53;4966738;28;20046;-68
2021/04/02 07:13:52;;;;;;;5.75;0.60;;;;;;;5.24;42.21;102495.13;4985243;28;20125;-68
2021/04/02 07:16:19;;;;;;;5.40;0.38;;;;;;;5.55;42.24;102503.16;4984256;28;20080;-70
2021/04/02 07:18:45;;;;;;;4.82;0.50;;;;;;;4.67;43.88;102504.06;4986378;28;20042;-67
2021/04/02 07:21:13;;;;;;;5.88;0.73;;;;;;;5.27;42.92;102500.34;4986445;28;20023;-69
2021/04/02 07:23:40;;;;;;;10.85;1.13;;;;;;;5.77;41.67;102489.47;4986290;28;20101;-67
2021/04/02 07:26:09;;;;;;;6.28;0.70;;;;;;;4.93;43.50;102491.41;4970088;28;20121;-68
2021/04/02 07:28:39;;;;;;;6.22;0.35;;;;;;;5.37;42.86;102490.88;4999187;28;20173;-67
2021/04/02 07:31:06;;;;;;;17.60;1.15;;;;;;;5.09;43.37;102503.63;4985412;28;20034;-68
2021/04/02 07:33:32;;;;;;;2.63;0.45;;;;;;;5.29;43.17;102492.56;4985461;28;20030;-67
2021/04/02 07:36:03;;;;;;;6.38;1.10;;;;;;;5.05;43.10;102491.50;4999088;28;20065;-69
2021/04/02 07:38:31;;;;;;;4.75;0.52;;;;;;;5.44;42.98;102484.91;4967915;28;20046;-67
2021/04/02 07:40:57;;;;;;;6.30;0.60;;;;;;;5.54;42.35;102488.44;4982559;28;20042;-67
2021/04/02 07:43:29;;;;;;;8.68;0.70;;;;;;;5.71;41.65;102480.78;4985560;28;20053;-67
2021/04/02 07:46:00;;;;;;;7.38;1.20;;;;;;;5.57;41.50;102475.47;4984142;28;20503;-66
2021/04/02 07:48:26;;;;;;;1.63;0.32;;;;;;;5.63;41.55;102486.75;4987091;28;20042;-66
2021/04/02 07:50:54;;;;;;;8.52;0.77;;;;;;;6.03;41.32;102487.00;4974290;28;20038;-66
2021/04/02 07:53:40;;;;;;;3.83;0.63;;;;;;;6.09;41.29;102491.34;4992585;28;20034;-67
2021/04/02 07:56:19;;;;;;;6.70;0.75;;;;;;;5.52;42.88;102492.75;5019101;28;20038;-66
2021/04/02 07:58:50;;;;;;;13.93;1.73;;;;;;;5.78;42.50;102491.19;4985701;28;20829;-66
2021/04/02 08:01:17;;;;;;;14.82;1.10;;;;;;;5.74;42.71;102494.63;4987955;28;20091;-66
2021/04/02 08:03:44;;;;;;;12.63;1.83;;;;;;;5.06;43.82;102482.88;4985757;28;20557;-67
2021/04/02 08:06:26;;;;;;;11.05;0.75;;;;;;;4.98;44.17;102487.13;4988016;28;20121;-66
2021/04/02 08:08:51;;;;;;;6.97;1.02;;;;;;;5.77;42.65;102488.56;4988800;28;20069;-67
2021/04/02 08:11:26;;;;;;;13.82;0.82;;;;;;;6.23;40.74;102486.22;4973541;28;20081;-66
2021/04/02 08:13:54;;;;;;;10.13;1.23;;;;;;;6.25;40.90;102487.97;4999918;28;20034;-67
2021/04/02 08:16:35;;;;;;;14.40;0.70;;;;;;;5.73;42.34;102494.63;4987790;28;20045;-66
2021/04/02 08:19:15;;;;;;;8.40;1.33;;;;;;;6.32;41.52;102491.47;4986314;28;20149;-66
2021/04/02 08:21:49;;;;;;;9.57;1.50;;;;;;;6.27;41.35;102498.34;4985092;28;20057;-66
2021/04/02 08:24:17;;;;;;;5.63;0.63;;;;;;;6.42;41.28;102485.47;4987147;28;20033;-67
2021/04/02 08:26:44;;;;;;;6.30;0.60;;;;;;;5.66;42.40;102486.78;4987211;28;20043;-67
2021/04/02 08:29:12;;;;;;;14.60;1.73;;;;;;;5.58;42.68;102498.84;4987427;28;20045;-66
2021/04/02 08:31:59;;;;;;;6.93;0.60;;;;;;;6.14;42.26;102509.53;4988173;28;20046;-66
2021/04/02 08:34:27;;;;;;;4.78;0.52;;;;;;;6.03;41.98;102512.94;4987328;28;20810;-66
2021/04/02 08:36:56;;;;;;;3.78;0.40;;;;;;;6.48;40.53;102502.78;4986469;28;20770;-67
2021/04/02 08:39:24;;;;;;;5.63;1.42;;;;;;;5.94;41.18;102510.31;4969128;28;21144;-67
2021/04/02 08:41:55;;;;;;;7.63;0.80;;;;;;;5.89;41.29;102519.81;4989135;28;20034;-67
2021/04/02 08:44:27;;;;;;;8.57;1.38;;;;;;;5.37;42.12;102524.59;4990041;28;20113;-65
2021/04/02 08:46:52;;;;;;;11.75;0.82;;;;;;;5.38;42.16;102531.53;4986679;28;20049;-66
2021/04/02 08:49:18;;;;;;;3.78;0.55;;;;;;;5.06;42.83;102534.72;4988783;28;20038;-65
2021/04/02 08:51:47;;;;;;;16.42;1.30;;;;;;;5.00;42.61;102540.69;4985055;28;20050;-67
2021/04/02 08:54:17;;;;;;;13.90;2.05;;;;;;;5.24;41.84;102534.88;4985277;28;20030;-67
2021/04/02 08:56:42;;;;;;;13.95;1.20;;;;;;;5.29;41.67;102541.84;4983740;28;20150;-66
2021/04/02 08:59:10;;;;;;;3.40;1.95;;;;;;;5.41;42.32;102529.84;4984069;28;20169;-65
2021/04/02 09:01:44;;;;;;;5.15;0.80;;;;;;;5.52;42.05;102540.28;4981367;28;20654;-67
2021/04/02 09:04:12;;;;;;;2.92;0.50;;;;;;;5.58;42.13;102553.31;4985481;28;20061;-66
2021/04/02 09:06:38;;;;;;;5.88;0.70;;;;;;;5.40;42.19;102548.84;4983580;28;20089;-67
2021/04/02 09:09:13;;;;;;;4.90;0.93;;;;;;;5.76;42.28;102549.13;4985291;28;20510;-66
2021/04/02 09:11:39;;;;;;;6.28;0.77;;;;;;;5.43;42.04;102548.84;4980356;28;20149;-65
2021/04/02 09:14:09;;;;;;;3.85;1.00;;;;;;;5.15;42.78;102542.59;4983777;28;20086;-66
2021/04/02 09:16:37;;;;;;;8.50;0.60;;;;;;;5.00;43.26;102539.84;4999379;28;20038;-66
2021/04/02 09:19:03;;;;;;;15.35;1.20;;;;;;;5.16;43.03;102535.66;4986271;28;20046;-65
2021/04/02 09:21:29;;;;;;;10.73;0.75;;;;;;;5.97;41.99;102533.69;4985181;28;20134;-66
2021/04/02 09:23:55;;;;;;;7.53;0.60;;;;;;;6.27;41.15;102537.31;4986583;28;20225;-67
2021/04/02 09:26:22;;;;;;;6.97;0.77;;;;;;;5.74;42.59;102532.66;4984218;28;20038;-68
2021/04/02 09:28:49;;;;;;;7.95;1.30;;;;;;;6.15;42.21;102534.63;4985816;28;20574;-69
2021/04/02 09:31:19;;;;;;;8.90;0.70;;;;;;;6.08;42.02;102524.25;4983972;28;20107;-67
2021/04/02 09:33:47;;;;;;;5.90;0.32;;;;;;;5.20;43.14;102543.47;4984633;28;20030;-68
2021/04/02 09:36:14;;;;;;;7.78;0.40;;;;;;;5.12;44.18;102534.75;4986818;28;20026;-66
2021/04/02 09:38:42;;;;;;;2.90;0.40;;;;;;;5.20;43.68;102521.88;5015444;28;20050;-66
2021/04/02 09:41:09;;;;;;;5.35;0.50;;;;;;;5.58;42.26;102529.97;4984153;28;20104;-67
2021/04/02 09:43:46;;;;;;;5.38;1.27;;;;;;;5.95;41.21;102535.41;4984756;28;20045;-66
2021/04/02 09:46:32;;;;;;;7.15;1.30;;;;;;;5.99;41.24;102528.50;4984991;28;20035;-68
2021/04/02 09:49:07;;;;;;;9.35;0.40;;;;;;;5.77;42.24;102535.28;4985850;28;20042;-68
2021/04/02 09:51:35;;;;;;;7.15;0.45;;;;;;;5.54;42.62;102523.00;4987530;28;20093;-68
2021/04/02 09:54:01;;;;;;;15.68;0.82;;;;;;;5.75;42.28;102522.31;4985000;28;21607;-68
2021/04/02 09:56:26;;;;;;;17.73;0.82;;;;;;;6.67;40.63;102521.91;4984122;28;20042;-69
2021/04/02 09:58:52;;;;;;;7.68;0.40;;;;;;;6.56;40.50;102526.19;4982739;28;20104;-69
2021/04/02 10:01:18;;;;;;;9.57;0.68;;;;;;;7.13;39.77;102521.97;4983306;28;20042;-68
2021/04/02 10:03:43;;;;;;;4.90;0.30;;;;;;;7.26;38.25;102523.72;4982612;28;20030;-67
2021/04/02 10:06:09;;;;;;;6.88;0.75;;;;;;;6.86;39.15;102521.09;4983950;28;20036;-70
2021/04/02 10:08:34;;;;;;;7.03;0.82;;;;;;;6.88;39.20;102515.88;4983679;28;20034;-69
2021/04/02 10:11:00;;;;;;;4.95;0.30;;;;;;;7.25;38.78;102511.59;4982098;28;20420;-68
2021/04/02 10:13:25;;;;;;;6.55;1.33;;;;;;;7.07;38.32;102517.66;4985663;28;20057;-68
2021/04/02 10:15:51;;;;;;;6.85;0.45;;;;;;;7.12;38.56;102517.66;4987647;28;20060;-69
2021/04/02 10:18:17;;;;;;;3.72;0.40;;;;;;;7.20;39.12;102515.94;4983944;28;20043;-67
2021/04/02 10:20:43;;;;;;;12.43;1.25;;;;;;;6.83;39.48;102513.28;4985599;28;20038;-68
2021/04/02 10:23:09;;;;;;;6.57;0.77;;;;;;;7.05;38.18;102513.31;4985065;28;20536;-68
2021/04/02 10:25:34;;;;;;;3.15;0.30;;;;;;;7.21;38.19;102508.97;4983057;28;20162;-67
2021/04/02 10:28:01;;;;;;;9.15;0.82;;;;;;;8.78;35.65;102504.22;4985681;28;20488;-68
2021/04/02 10:30:27;;;;;;;6.90;0.63;;;;;;;8.46;34.71;102499.16;4981238;28;20053;-67
2021/04/02 10:32:52;;;;;;;4.85;0.50;;;;;;;8.80;35.36;102497.25;4982665;28;20019;-68
2021/04/02 10:35:18;;;;;;;5.07;0.57;;;;;;;9.05;34.36;102494.47;4986127;28;20466;-67
2021/04/02 10:37:43;;;;;;;6.43;1.08;;;;;;;8.81;36.21;102491.19;4982791;28;20516;-67
2021/04/02 10:40:10;;;;;;;8.50;0.40;;;;;;;9.91;34.06;102486.72;4968211;28;20030;-69
2021/04/02 10:42:36;;;;;;;5.80;0.45;;;;;;;9.85;32.67;102491.13;4982449;28;20133;-66
2021/04/02 10:45:02;;;;;;;7.38;0.38;;;;;;;8.77;34.63;102492.06;4985769;28;20080;-68
2021/04/02 10:47:27;;;;;;;3.70;0.30;;;;;;;9.19;34.92;102490.03;4998304;28;20046;-69
2021/04/02 10:49:53;;;;;;;13.77;0.63;;;;;;;8.63;34.98;102491.25;4985539;28;20561;-68
2021/04/02 10:52:18;;;;;;;5.15;0.40;;;;;;;8.30;36.15;102485.34;4985397;28;20049;-68
2021/04/02 10:54:44;;;;;;;3.33;0.40;;;;;;;7.89;36.46;102486.34;4982265;28;20831;-69
2021/04/02 10:57:10;;;;;;;11.10;0.45;;;;;;;7.47;37.62;102482.97;4982968;28;20040;-69
2021/04/02 10:59:35;;;;;;;6.78;0.70;;;;;;;7.72;37.25;102476.00;4981181;28;20038;-68
2021/04/02 11:02:01;;;;;;;6.07;1.30;;;;;;;7.37;37.45;102469.09;4984463;28;20133;-70
2021/04/02 11:04:26;;;;;;;6.35;0.57;;;;;;;7.68;38.01;102484.69;4983219;28;20504;-68
2021/04/02 11:06:52;;;;;;;7.45;0.73;;;;;;;7.65;38.38;102474.28;4978875;28;20505;-68
2021/04/02 11:09:17;;;;;;;3.17;0.40;;;;;;;6.85;38.68;102482.09;4982956;28;20041;-68
2021/04/02 11:11:43;;;;;;;6.80;0.35;;;;;;;6.23;40.23;102486.22;4983788;28;20060;-67
2021/04/02 11:14:08;;;;;;;10.70;1.13;;;;;;;6.72;39.44;102478.59;4983248;28;20049;-69
2021/04/02 11:16:34;;;;;;;2.65;1.08;;;;;;;7.60;38.19;102471.72;4983464;28;20034;-68
2021/04/02 11:19:00;;;;;;;8.07;0.80;;;;;;;7.46;38.21;102470.81;4984687;28;20038;-67
2021/04/02 11:21:25;;;;;;;5.18;0.30;;;;;;;8.43;36.48;102466.19;4980707;28;20042;-68
2021/04/02 11:23:51;;;;;;;2.95;0.70;;;;;;;8.34;35.71;102451.47;4985206;28;20089;-67
2021/04/02 11:26:16;;;;;;;8.10;0.30;;;;;;;7.85;37.18;102454.28;4984719;28;20482;-68
2021/04/02 11:28:42;;;;;;;10.23;1.17;;;;;;;7.73;37.56;102452.59;4983364;28;20504;-67
2021/04/02 11:31:07;;;;;;;9.73;0.57;;;;;;;8.29;36.96;102441.91;4982208;28;20046;-67
2021/04/02 11:33:34;;;;;;;9.68;0.68;;;;;;;9.08;34.97;102437.06;4967473;28;20381;-68
2021/04/02 11:35:59;;;;;;;17.95;1.60;;;;;;;8.29;36.63;102439.31;4985362;28;20092;-67
2021/04/02 11:38:26;;;;;;;0.85;0.22;;;;;;;8.35;35.70;102434.94;4981941;28;20056;-67